Accueil
METAR-TAF:

METAR-TAF

Aéroports :

Chesapeake Regional Airport

Norfolk, Virginie, États-Unis

latitude: 36-39-56N, longitude: 076-19-14W, altitude: 6 m

Observation

Le bulletin a été fait il y a 22 minutes, à 01:35 UTC
Vent 9 kt de sud
Température 13°C
Humidité 67%
Pression 1015 hPa
Visibilité: 16.1 km
Ciel clair

METAR: KCPK 120135Z AUTO 18009KT 10SM CLR 13/07 A2998 RMK AO2 T01310067

Heure: 20:57 (01:57 UTC)


TAF: absent

Observations et prévisions météorologiques de plus de 4000 aéroports (messages METAR et TAF).

Les stations disponibles sont représentées par des disques jaunes et rouges sur la carte.

Passer la souris dessus pour voir le nom de la station.

Cliquer dessus pour voir les observations et prévisions météorologiques.

Pour changer de carte: cliquez sur les boutons verts avec une croix noire pour zoomer, sur le bouton vert avec un tiret pour effectuer un zoom arrière, ou sur les flèches vertes pour les cartes adjacentes.


METAR-TAF: